sensor_id;sensor_type;location;lat;lon;timestamp;P1;durP1;ratioP1;P2;durP2;ratioP2
84172;SDS011;74302;40.122;18.310;2023-12-20T00:01:41;118.95;;;52.22;;
84172;SDS011;74302;40.122;18.310;2023-12-20T00:04:10;79.22;;;52.05;;
84172;SDS011;74302;40.122;18.310;2023-12-20T00:06:39;74.53;;;50.03;;
84172;SDS011;74302;40.122;18.310;2023-12-20T00:09:09;72.35;;;50.55;;
84172;SDS011;74302;40.122;18.310;2023-12-20T00:11:38;68.72;;;48.65;;
84172;SDS011;74302;40.122;18.310;2023-12-20T00:14:09;68.85;;;48.97;;
84172;SDS011;74302;40.122;18.310;2023-12-20T00:16:40;71.10;;;49.17;;
84172;SDS011;74302;40.122;18.310;2023-12-20T00:19:09;63.53;;;47.35;;
84172;SDS011;74302;40.122;18.310;2023-12-20T00:21:38;60.58;;;46.45;;
84172;SDS011;74302;40.122;18.310;2023-12-20T00:24:07;63.80;;;46.08;;
84172;SDS011;74302;40.122;18.310;2023-12-20T00:26:37;63.88;;;45.20;;
84172;SDS011;74302;40.122;18.310;2023-12-20T00:29:06;58.97;;;45.47;;
84172;SDS011;74302;40.122;18.310;2023-12-20T00:31:35;67.75;;;49.00;;
84172;SDS011;74302;40.122;18.310;2023-12-20T00:34:06;76.07;;;51.95;;
84172;SDS011;74302;40.122;18.310;2023-12-20T00:36:36;72.60;;;51.55;;
84172;SDS011;74302;40.122;18.310;2023-12-20T00:39:05;69.45;;;48.70;;
84172;SDS011;74302;40.122;18.310;2023-12-20T00:41:35;67.20;;;48.72;;
84172;SDS011;74302;40.122;18.310;2023-12-20T00:44:04;59.22;;;46.75;;
84172;SDS011;74302;40.122;18.310;2023-12-20T00:46:33;65.13;;;48.65;;
84172;SDS011;74302;40.122;18.310;2023-12-20T00:49:03;60.90;;;46.58;;
84172;SDS011;74302;40.122;18.310;2023-12-20T00:51:33;63.50;;;49.03;;
84172;SDS011;74302;40.122;18.310;2023-12-20T00:54:03;60.30;;;47.97;;
84172;SDS011;74302;40.122;18.310;2023-12-20T00:56:32;63.53;;;49.22;;
84172;SDS011;74302;40.122;18.310;2023-12-20T00:59:01;63.42;;;48.78;;
84172;SDS011;74302;40.122;18.310;2023-12-20T01:01:31;64.25;;;49.95;;
84172;SDS011;74302;40.122;18.310;2023-12-20T01:04:00;63.40;;;48.35;;
84172;SDS011;74302;40.122;18.310;2023-12-20T01:06:30;62.17;;;48.25;;
84172;SDS011;74302;40.122;18.310;2023-12-20T01:09:00;69.45;;;50.97;;
84172;SDS011;74302;40.122;18.310;2023-12-20T01:11:30;66.93;;;49.42;;
84172;SDS011;74302;40.122;18.310;2023-12-20T01:13:59;61.08;;;48.90;;
84172;SDS011;74302;40.122;18.310;2023-12-20T01:16:28;63.95;;;47.92;;
84172;SDS011;74302;40.122;18.310;2023-12-20T01:18:57;67.82;;;49.30;;
84172;SDS011;74302;40.122;18.310;2023-12-20T01:21:27;73.45;;;53.25;;
84172;SDS011;74302;40.122;18.310;2023-12-20T01:23:56;68.68;;;51.97;;
84172;SDS011;74302;40.122;18.310;2023-12-20T01:26:27;77.05;;;51.85;;
84172;SDS011;74302;40.122;18.310;2023-12-20T01:28:56;69.97;;;50.50;;
84172;SDS011;74302;40.122;18.310;2023-12-20T01:31:26;66.75;;;48.42;;
84172;SDS011;74302;40.122;18.310;2023-12-20T01:33:55;65.05;;;48.55;;
84172;SDS011;74302;40.122;18.310;2023-12-20T01:36:24;69.10;;;49.03;;
84172;SDS011;74302;40.122;18.310;2023-12-20T01:38:54;69.88;;;49.85;;
84172;SDS011;74302;40.122;18.310;2023-12-20T01:41:23;81.35;;;55.83;;
84172;SDS011;74302;40.122;18.310;2023-12-20T01:43:54;79.95;;;56.65;;
84172;SDS011;74302;40.122;18.310;2023-12-20T01:46:23;78.05;;;53.83;;
84172;SDS011;74302;40.122;18.310;2023-12-20T01:48:54;79.03;;;53.78;;
84172;SDS011;74302;40.122;18.310;2023-12-20T01:51:23;92.30;;;54.97;;
84172;SDS011;74302;40.122;18.310;2023-12-20T01:53:54;74.72;;;50.38;;
84172;SDS011;74302;40.122;18.310;2023-12-20T01:56:25;73.10;;;50.30;;
84172;SDS011;74302;40.122;18.310;2023-12-20T01:58:56;66.50;;;49.92;;
84172;SDS011;74302;40.122;18.310;2023-12-20T02:01:26;67.13;;;50.60;;
84172;SDS011;74302;40.122;18.310;2023-12-20T02:03:56;73.80;;;48.80;;
84172;SDS011;74302;40.122;18.310;2023-12-20T02:06:26;91.35;;;50.00;;
84172;SDS011;74302;40.122;18.310;2023-12-20T02:08:58;89.68;;;50.38;;
84172;SDS011;74302;40.122;18.310;2023-12-20T02:11:28;118.20;;;53.35;;
84172;SDS011;74302;40.122;18.310;2023-12-20T02:13:59;92.57;;;51.42;;
84172;SDS011;74302;40.122;18.310;2023-12-20T02:16:28;146.20;;;57.55;;
84172;SDS011;74302;40.122;18.310;2023-12-20T02:18:57;140.80;;;58.53;;
84172;SDS011;74302;40.122;18.310;2023-12-20T02:21:32;134.63;;;59.60;;
84172;SDS011;74302;40.122;18.310;2023-12-20T02:24:02;144.55;;;60.60;;
84172;SDS011;74302;40.122;18.310;2023-12-20T02:26:32;98.63;;;55.47;;
84172;SDS011;74302;40.122;18.310;2023-12-20T02:29:03;103.18;;;53.42;;
84172;SDS011;74302;40.122;18.310;2023-12-20T02:31:32;117.30;;;57.00;;
84172;SDS011;74302;40.122;18.310;2023-12-20T02:34:01;90.78;;;55.05;;
84172;SDS011;74302;40.122;18.310;2023-12-20T02:36:30;144.40;;;57.78;;
84172;SDS011;74302;40.122;18.310;2023-12-20T02:39:01;117.70;;;57.63;;
84172;SDS011;74302;40.122;18.310;2023-12-20T02:41:31;99.88;;;55.13;;
84172;SDS011;74302;40.122;18.310;2023-12-20T02:44:01;127.70;;;54.90;;
84172;SDS011;74302;40.122;18.310;2023-12-20T02:46:31;116.88;;;60.20;;
84172;SDS011;74302;40.122;18.310;2023-12-20T02:49:01;113.75;;;54.90;;
84172;SDS011;74302;40.122;18.310;2023-12-20T02:51:30;108.63;;;55.95;;
84172;SDS011;74302;40.122;18.310;2023-12-20T02:54:01;109.93;;;53.00;;
84172;SDS011;74302;40.122;18.310;2023-12-20T02:56:30;124.68;;;57.90;;
84172;SDS011;74302;40.122;18.310;2023-12-20T02:58:59;117.88;;;54.63;;
84172;SDS011;74302;40.122;18.310;2023-12-20T03:01:29;105.22;;;52.78;;
84172;SDS011;74302;40.122;18.310;2023-12-20T03:03:58;117.13;;;53.97;;
84172;SDS011;74302;40.122;18.310;2023-12-20T03:06:27;121.68;;;51.58;;
84172;SDS011;74302;40.122;18.310;2023-12-20T03:08:57;119.72;;;50.83;;
84172;SDS011;74302;40.122;18.310;2023-12-20T03:11:27;94.10;;;47.30;;
84172;SDS011;74302;40.122;18.310;2023-12-20T03:13:57;105.15;;;47.65;;
84172;SDS011;74302;40.122;18.310;2023-12-20T03:16:26;91.15;;;48.63;;
84172;SDS011;74302;40.122;18.310;2023-12-20T03:18:55;75.00;;;44.25;;
84172;SDS011;74302;40.122;18.310;2023-12-20T03:21:25;92.85;;;38.75;;
84172;SDS011;74302;40.122;18.310;2023-12-20T03:23:54;70.35;;;38.15;;
84172;SDS011;74302;40.122;18.310;2023-12-20T03:26:23;93.25;;;39.35;;
84172;SDS011;74302;40.122;18.310;2023-12-20T03:28:54;90.20;;;37.63;;
84172;SDS011;74302;40.122;18.310;2023-12-20T03:31:23;93.38;;;37.05;;
84172;SDS011;74302;40.122;18.310;2023-12-20T03:33:53;90.70;;;37.97;;
84172;SDS011;74302;40.122;18.310;2023-12-20T03:36:22;69.80;;;38.28;;
84172;SDS011;74302;40.122;18.310;2023-12-20T03:38:51;49.90;;;37.65;;
84172;SDS011;74302;40.122;18.310;2023-12-20T03:41:20;52.70;;;37.65;;
84172;SDS011;74302;40.122;18.310;2023-12-20T03:43:50;55.83;;;39.75;;
84172;SDS011;74302;40.122;18.310;2023-12-20T03:46:20;54.08;;;39.05;;
84172;SDS011;74302;40.122;18.310;2023-12-20T03:48:49;54.45;;;37.70;;
84172;SDS011;74302;40.122;18.310;2023-12-20T03:51:19;54.25;;;37.53;;
84172;SDS011;74302;40.122;18.310;2023-12-20T03:53:48;78.97;;;36.38;;
84172;SDS011;74302;40.122;18.310;2023-12-20T03:56:17;72.03;;;40.95;;
84172;SDS011;74302;40.122;18.310;2023-12-20T03:58:46;76.25;;;36.53;;
84172;SDS011;74302;40.122;18.310;2023-12-20T04:01:16;53.40;;;34.95;;
84172;SDS011;74302;40.122;18.310;2023-12-20T04:03:46;69.43;;;34.38;;
84172;SDS011;74302;40.122;18.310;2023-12-20T04:06:16;45.30;;;31.02;;
84172;SDS011;74302;40.122;18.310;2023-12-20T04:08:46;106.00;;;35.10;;
84172;SDS011;74302;40.122;18.310;2023-12-20T04:11:15;46.17;;;32.20;;
84172;SDS011;74302;40.122;18.310;2023-12-20T04:13:44;51.90;;;33.05;;
84172;SDS011;74302;40.122;18.310;2023-12-20T04:16:14;47.97;;;34.45;;
84172;SDS011;74302;40.122;18.310;2023-12-20T04:18:43;50.33;;;36.55;;
84172;SDS011;74302;40.122;18.310;2023-12-20T04:21:13;62.00;;;38.78;;
84172;SDS011;74302;40.122;18.310;2023-12-20T04:23:43;57.22;;;40.33;;
84172;SDS011;74302;40.122;18.310;2023-12-20T04:26:12;53.05;;;39.03;;
84172;SDS011;74302;40.122;18.310;2023-12-20T04:28:42;58.70;;;40.08;;
84172;SDS011;74302;40.122;18.310;2023-12-20T04:31:11;56.70;;;40.55;;
84172;SDS011;74302;40.122;18.310;2023-12-20T04:33:40;61.40;;;40.50;;
84172;SDS011;74302;40.122;18.310;2023-12-20T04:36:10;55.80;;;39.65;;
84172;SDS011;74302;40.122;18.310;2023-12-20T04:38:40;62.20;;;40.38;;
84172;SDS011;74302;40.122;18.310;2023-12-20T04:41:09;70.47;;;43.55;;
84172;SDS011;74302;40.122;18.310;2023-12-20T04:43:43;60.17;;;39.17;;
84172;SDS011;74302;40.122;18.310;2023-12-20T04:46:12;58.90;;;40.20;;
84172;SDS011;74302;40.122;18.310;2023-12-20T04:48:41;56.08;;;37.75;;
84172;SDS011;74302;40.122;18.310;2023-12-20T04:51:10;57.67;;;38.55;;
84172;SDS011;74302;40.122;18.310;2023-12-20T04:53:41;58.85;;;37.60;;
84172;SDS011;74302;40.122;18.310;2023-12-20T04:56:10;60.72;;;38.80;;
84172;SDS011;74302;40.122;18.310;2023-12-20T04:58:39;65.97;;;38.95;;
84172;SDS011;74302;40.122;18.310;2023-12-20T05:01:09;75.00;;;42.95;;
84172;SDS011;74302;40.122;18.310;2023-12-20T05:03:39;80.05;;;40.75;;
84172;SDS011;74302;40.122;18.310;2023-12-20T05:06:08;70.32;;;41.58;;
84172;SDS011;74302;40.122;18.310;2023-12-20T05:08:38;76.72;;;43.38;;
84172;SDS011;74302;40.122;18.310;2023-12-20T05:11:09;67.57;;;41.05;;
84172;SDS011;74302;40.122;18.310;2023-12-20T05:13:40;141.60;;;40.33;;
84172;SDS011;74302;40.122;18.310;2023-12-20T05:16:11;150.85;;;42.95;;
84172;SDS011;74302;40.122;18.310;2023-12-20T05:18:41;117.55;;;41.63;;
84172;SDS011;74302;40.122;18.310;2023-12-20T05:21:10;114.38;;;39.78;;
84172;SDS011;74302;40.122;18.310;2023-12-20T05:23:40;126.35;;;42.72;;
84172;SDS011;74302;40.122;18.310;2023-12-20T05:26:10;114.10;;;42.20;;
84172;SDS011;74302;40.122;18.310;2023-12-20T05:28:40;121.63;;;39.53;;
84172;SDS011;74302;40.122;18.310;2023-12-20T05:31:10;100.20;;;40.80;;
84172;SDS011;74302;40.122;18.310;2023-12-20T05:33:39;114.85;;;41.05;;
84172;SDS011;74302;40.122;18.310;2023-12-20T05:36:09;102.97;;;37.28;;
84172;SDS011;74302;40.122;18.310;2023-12-20T05:38:40;77.10;;;36.83;;
84172;SDS011;74302;40.122;18.310;2023-12-20T05:41:11;75.25;;;37.10;;
84172;SDS011;74302;40.122;18.310;2023-12-20T05:43:41;92.00;;;35.63;;
84172;SDS011;74302;40.122;18.310;2023-12-20T05:46:10;79.18;;;36.95;;
84172;SDS011;74302;40.122;18.310;2023-12-20T05:48:39;55.42;;;36.28;;
84172;SDS011;74302;40.122;18.310;2023-12-20T05:51:11;77.30;;;37.58;;
84172;SDS011;74302;40.122;18.310;2023-12-20T05:53:41;135.18;;;38.50;;
84172;SDS011;74302;40.122;18.310;2023-12-20T05:56:12;108.47;;;37.33;;
84172;SDS011;74302;40.122;18.310;2023-12-20T05:58:42;98.43;;;38.53;;
84172;SDS011;74302;40.122;18.310;2023-12-20T06:01:11;55.45;;;32.22;;
84172;SDS011;74302;40.122;18.310;2023-12-20T06:03:41;71.97;;;31.50;;
84172;SDS011;74302;40.122;18.310;2023-12-20T06:06:12;69.55;;;27.90;;
84172;SDS011;74302;40.122;18.310;2023-12-20T06:08:42;64.53;;;29.63;;
84172;SDS011;74302;40.122;18.310;2023-12-20T06:11:13;70.65;;;28.27;;
84172;SDS011;74302;40.122;18.310;2023-12-20T06:13:42;59.15;;;27.23;;
84172;SDS011;74302;40.122;18.310;2023-12-20T06:16:12;83.35;;;30.83;;
84172;SDS011;74302;40.122;18.310;2023-12-20T06:18:42;75.38;;;32.28;;
84172;SDS011;74302;40.122;18.310;2023-12-20T06:21:11;75.13;;;31.48;;
84172;SDS011;74302;40.122;18.310;2023-12-20T06:23:41;69.15;;;31.92;;
84172;SDS011;74302;40.122;18.310;2023-12-20T06:26:12;66.22;;;30.70;;
84172;SDS011;74302;40.122;18.310;2023-12-20T06:28:41;63.10;;;30.45;;
84172;SDS011;74302;40.122;18.310;2023-12-20T06:31:11;60.28;;;29.80;;
84172;SDS011;74302;40.122;18.310;2023-12-20T06:33:40;79.60;;;29.38;;
84172;SDS011;74302;40.122;18.310;2023-12-20T06:36:10;72.68;;;30.75;;
84172;SDS011;74302;40.122;18.310;2023-12-20T06:38:40;66.20;;;30.88;;
84172;SDS011;74302;40.122;18.310;2023-12-20T06:41:14;58.40;;;30.00;;
84172;SDS011;74302;40.122;18.310;2023-12-20T06:43:44;71.93;;;29.55;;
84172;SDS011;74302;40.122;18.310;2023-12-20T06:46:15;68.15;;;30.58;;
84172;SDS011;74302;40.122;18.310;2023-12-20T06:48:44;56.45;;;28.83;;
84172;SDS011;74302;40.122;18.310;2023-12-20T06:51:14;74.70;;;28.92;;
84172;SDS011;74302;40.122;18.310;2023-12-20T06:53:44;71.65;;;29.83;;
84172;SDS011;74302;40.122;18.310;2023-12-20T06:56:15;67.28;;;30.40;;
84172;SDS011;74302;40.122;18.310;2023-12-20T06:58:44;73.57;;;29.30;;
84172;SDS011;74302;40.122;18.310;2023-12-20T07:01:14;60.75;;;29.55;;
84172;SDS011;74302;40.122;18.310;2023-12-20T07:03:44;65.60;;;27.52;;
84172;SDS011;74302;40.122;18.310;2023-12-20T07:06:14;63.70;;;27.73;;
84172;SDS011;74302;40.122;18.310;2023-12-20T07:08:45;58.17;;;27.65;;
84172;SDS011;74302;40.122;18.310;2023-12-20T07:11:15;49.03;;;26.20;;
84172;SDS011;74302;40.122;18.310;2023-12-20T07:13:45;54.88;;;25.77;;
84172;SDS011;74302;40.122;18.310;2023-12-20T07:16:14;55.38;;;25.98;;
84172;SDS011;74302;40.122;18.310;2023-12-20T07:18:43;55.15;;;25.02;;
84172;SDS011;74302;40.122;18.310;2023-12-20T07:21:14;41.00;;;26.60;;
84172;SDS011;74302;40.122;18.310;2023-12-20T07:23:43;48.03;;;24.10;;
84172;SDS011;74302;40.122;18.310;2023-12-20T07:26:12;40.60;;;24.75;;
84172;SDS011;74302;40.122;18.310;2023-12-20T07:28:43;37.53;;;24.45;;
84172;SDS011;74302;40.122;18.310;2023-12-20T07:31:13;35.95;;;23.95;;
84172;SDS011;74302;40.122;18.310;2023-12-20T07:33:44;50.38;;;25.65;;
84172;SDS011;74302;40.122;18.310;2023-12-20T07:36:13;66.07;;;24.65;;
84172;SDS011;74302;40.122;18.310;2023-12-20T07:38:42;51.95;;;23.30;;
84172;SDS011;74302;40.122;18.310;2023-12-20T07:41:12;49.90;;;21.50;;
84172;SDS011;74302;40.122;18.310;2023-12-20T07:43:44;86.25;;;31.15;;
84172;SDS011;74302;40.122;18.310;2023-12-20T07:46:13;101.35;;;32.60;;
84172;SDS011;74302;40.122;18.310;2023-12-20T07:48:43;107.63;;;27.73;;
84172;SDS011;74302;40.122;18.310;2023-12-20T07:51:13;73.90;;;25.48;;
84172;SDS011;74302;40.122;18.310;2023-12-20T07:53:43;65.82;;;21.65;;
84172;SDS011;74302;40.122;18.310;2023-12-20T07:56:15;68.72;;;20.60;;
84172;SDS011;74302;40.122;18.310;2023-12-20T07:58:46;40.42;;;20.13;;
84172;SDS011;74302;40.122;18.310;2023-12-20T08:01:16;55.45;;;21.20;;
84172;SDS011;74302;40.122;18.310;2023-12-20T08:03:47;47.88;;;18.02;;
84172;SDS011;74302;40.122;18.310;2023-12-20T08:06:17;50.33;;;17.20;;
84172;SDS011;74302;40.122;18.310;2023-12-20T08:08:46;41.10;;;14.75;;
84172;SDS011;74302;40.122;18.310;2023-12-20T08:11:18;46.95;;;14.25;;
84172;SDS011;74302;40.122;18.310;2023-12-20T08:13:49;31.90;;;15.40;;
84172;SDS011;74302;40.122;18.310;2023-12-20T08:16:18;57.88;;;27.52;;
84172;SDS011;74302;40.122;18.310;2023-12-20T08:18:47;43.00;;;20.80;;
84172;SDS011;74302;40.122;18.310;2023-12-20T08:21:17;32.15;;;16.25;;
84172;SDS011;74302;40.122;18.310;2023-12-20T08:23:47;29.67;;;13.60;;
84172;SDS011;74302;40.122;18.310;2023-12-20T08:26:18;54.15;;;19.10;;
84172;SDS011;74302;40.122;18.310;2023-12-20T08:28:52;65.85;;;40.35;;
84172;SDS011;74302;40.122;18.310;2023-12-20T08:31:22;40.92;;;20.27;;
84172;SDS011;74302;40.122;18.310;2023-12-20T08:33:51;29.40;;;16.77;;
84172;SDS011;74302;40.122;18.310;2023-12-20T08:36:21;26.73;;;14.90;;
84172;SDS011;74302;40.122;18.310;2023-12-20T08:38:51;27.90;;;15.10;;
84172;SDS011;74302;40.122;18.310;2023-12-20T08:41:20;22.67;;;14.32;;
84172;SDS011;74302;40.122;18.310;2023-12-20T08:43:49;32.55;;;15.52;;
84172;SDS011;74302;40.122;18.310;2023-12-20T08:46:20;24.70;;;15.55;;
84172;SDS011;74302;40.122;18.310;2023-12-20T08:48:49;23.67;;;14.85;;
84172;SDS011;74302;40.122;18.310;2023-12-20T08:51:18;23.52;;;14.82;;
84172;SDS011;74302;40.122;18.310;2023-12-20T08:53:50;26.00;;;15.35;;
84172;SDS011;74302;40.122;18.310;2023-12-20T08:56:19;46.92;;;16.75;;
84172;SDS011;74302;40.122;18.310;2023-12-20T08:58:48;131.73;;;18.25;;
84172;SDS011;74302;40.122;18.310;2023-12-20T09:01:19;40.72;;;16.70;;
84172;SDS011;74302;40.122;18.310;2023-12-20T09:03:48;61.47;;;14.98;;
84172;SDS011;74302;40.122;18.310;2023-12-20T09:06:18;87.15;;;13.82;;
84172;SDS011;74302;40.122;18.310;2023-12-20T09:08:47;53.67;;;15.05;;
84172;SDS011;74302;40.122;18.310;2023-12-20T09:11:16;81.75;;;15.05;;
84172;SDS011;74302;40.122;18.310;2023-12-20T09:13:45;22.90;;;12.23;;
84172;SDS011;74302;40.122;18.310;2023-12-20T09:16:15;70.72;;;10.70;;
84172;SDS011;74302;40.122;18.310;2023-12-20T09:18:46;41.53;;;11.05;;
84172;SDS011;74302;40.122;18.310;2023-12-20T09:21:15;18.13;;;9.38;;
84172;SDS011;74302;40.122;18.310;2023-12-20T09:23:44;17.25;;;10.00;;
84172;SDS011;74302;40.122;18.310;2023-12-20T09:26:13;15.23;;;9.02;;
84172;SDS011;74302;40.122;18.310;2023-12-20T09:28:43;12.93;;;7.75;;
84172;SDS011;74302;40.122;18.310;2023-12-20T09:31:12;31.70;;;13.25;;
84172;SDS011;74302;40.122;18.310;2023-12-20T09:33:42;26.23;;;15.10;;
84172;SDS011;74302;40.122;18.310;2023-12-20T09:36:12;24.70;;;15.93;;
84172;SDS011;74302;40.122;18.310;2023-12-20T09:38:42;31.45;;;16.60;;
84172;SDS011;74302;40.122;18.310;2023-12-20T09:41:12;20.90;;;13.77;;
84172;SDS011;74302;40.122;18.310;2023-12-20T09:43:42;21.33;;;13.48;;
84172;SDS011;74302;40.122;18.310;2023-12-20T09:46:11;13.63;;;8.52;;
84172;SDS011;74302;40.122;18.310;2023-12-20T09:48:43;13.40;;;9.00;;
84172;SDS011;74302;40.122;18.310;2023-12-20T09:51:15;12.20;;;7.10;;
84172;SDS011;74302;40.122;18.310;2023-12-20T09:53:44;10.70;;;6.70;;
84172;SDS011;74302;40.122;18.310;2023-12-20T09:56:15;9.65;;;6.05;;
84172;SDS011;74302;40.122;18.310;2023-12-20T09:58:45;9.45;;;6.20;;
84172;SDS011;74302;40.122;18.310;2023-12-20T10:01:14;16.50;;;12.40;;
84172;SDS011;74302;40.122;18.310;2023-12-20T10:03:45;11.70;;;9.05;;
84172;SDS011;74302;40.122;18.310;2023-12-20T10:06:16;11.45;;;8.35;;
84172;SDS011;74302;40.122;18.310;2023-12-20T10:08:49;10.80;;;7.85;;
84172;SDS011;74302;40.122;18.310;2023-12-20T10:11:18;11.73;;;6.60;;
84172;SDS011;74302;40.122;18.310;2023-12-20T10:13:48;12.50;;;9.30;;
84172;SDS011;74302;40.122;18.310;2023-12-20T10:16:18;12.63;;;8.90;;
84172;SDS011;74302;40.122;18.310;2023-12-20T10:18:47;10.98;;;7.95;;
84172;SDS011;74302;40.122;18.310;2023-12-20T10:21:18;12.68;;;9.18;;
84172;SDS011;74302;40.122;18.310;2023-12-20T10:23:47;11.00;;;7.93;;
84172;SDS011;74302;40.122;18.310;2023-12-20T10:26:19;11.40;;;8.50;;
84172;SDS011;74302;40.122;18.310;2023-12-20T10:28:50;12.05;;;7.40;;
84172;SDS011;74302;40.122;18.310;2023-12-20T10:31:26;11.13;;;8.30;;
84172;SDS011;74302;40.122;18.310;2023-12-20T10:33:56;13.85;;;9.32;;
84172;SDS011;74302;40.122;18.310;2023-12-20T10:36:28;9.10;;;5.40;;
84172;SDS011;74302;40.122;18.310;2023-12-20T10:38:59;9.73;;;5.60;;
84172;SDS011;74302;40.122;18.310;2023-12-20T10:41:31;6.75;;;4.20;;
84172;SDS011;74302;40.122;18.310;2023-12-20T10:44:03;10.65;;;5.53;;
84172;SDS011;74302;40.122;18.310;2023-12-20T10:46:33;19.13;;;11.10;;
84172;SDS011;74302;40.122;18.310;2023-12-20T10:49:03;17.15;;;9.95;;
84172;SDS011;74302;40.122;18.310;2023-12-20T10:51:36;13.82;;;7.70;;
84172;SDS011;74302;40.122;18.310;2023-12-20T10:54:07;9.35;;;5.50;;
84172;SDS011;74302;40.122;18.310;2023-12-20T10:56:36;6.95;;;3.63;;
84172;SDS011;74302;40.122;18.310;2023-12-20T10:59:06;6.40;;;3.15;;
84172;SDS011;74302;40.122;18.310;2023-12-20T11:01:39;7.15;;;3.22;;
84172;SDS011;74302;40.122;18.310;2023-12-20T11:04:10;5.53;;;3.10;;
84172;SDS011;74302;40.122;18.310;2023-12-20T11:06:49;9.05;;;3.42;;
84172;SDS011;74302;40.122;18.310;2023-12-20T11:09:24;6.83;;;2.97;;
84172;SDS011;74302;40.122;18.310;2023-12-20T11:12:00;6.10;;;2.85;;
84172;SDS011;74302;40.122;18.310;2023-12-20T11:14:42;9.05;;;5.28;;
84172;SDS011;74302;40.122;18.310;2023-12-20T11:17:15;10.80;;;7.28;;
84172;SDS011;74302;40.122;18.310;2023-12-20T11:20:04;8.30;;;3.70;;
84172;SDS011;74302;40.122;18.310;2023-12-20T11:22:36;7.40;;;3.58;;
84172;SDS011;74302;40.122;18.310;2023-12-20T11:25:09;8.18;;;3.70;;
84172;SDS011;74302;40.122;18.310;2023-12-20T11:27:40;6.18;;;3.05;;
84172;SDS011;74302;40.122;18.310;2023-12-20T11:30:12;6.00;;;2.90;;
84172;SDS011;74302;40.122;18.310;2023-12-20T11:32:44;6.65;;;3.28;;
84172;SDS011;74302;40.122;18.310;2023-12-20T11:35:18;9.13;;;3.50;;
84172;SDS011;74302;40.122;18.310;2023-12-20T11:37:49;7.60;;;3.30;;
84172;SDS011;74302;40.122;18.310;2023-12-20T11:40:20;7.75;;;3.67;;
84172;SDS011;74302;40.122;18.310;2023-12-20T11:42:52;7.07;;;3.63;;
84172;SDS011;74302;40.122;18.310;2023-12-20T11:45:23;6.90;;;3.53;;
84172;SDS011;74302;40.122;18.310;2023-12-20T11:47:55;9.48;;;3.60;;
84172;SDS011;74302;40.122;18.310;2023-12-20T11:50:25;6.32;;;3.45;;
84172;SDS011;74302;40.122;18.310;2023-12-20T11:52:56;6.35;;;3.20;;
84172;SDS011;74302;40.122;18.310;2023-12-20T11:55:26;7.88;;;3.65;;
84172;SDS011;74302;40.122;18.310;2023-12-20T11:57:55;7.47;;;3.28;;
84172;SDS011;74302;40.122;18.310;2023-12-20T12:00:25;7.28;;;3.25;;
84172;SDS011;74302;40.122;18.310;2023-12-20T12:02:58;8.20;;;3.45;;
84172;SDS011;74302;40.122;18.310;2023-12-20T12:05:30;8.43;;;3.63;;
84172;SDS011;74302;40.122;18.310;2023-12-20T12:08:01;6.13;;;3.50;;
84172;SDS011;74302;40.122;18.310;2023-12-20T12:10:32;6.53;;;3.20;;
84172;SDS011;74302;40.122;18.310;2023-12-20T12:13:01;7.82;;;3.50;;
84172;SDS011;74302;40.122;18.310;2023-12-20T12:15:31;6.93;;;3.20;;
84172;SDS011;74302;40.122;18.310;2023-12-20T12:18:00;6.60;;;3.30;;
84172;SDS011;74302;40.122;18.310;2023-12-20T12:20:29;7.22;;;4.13;;
84172;SDS011;74302;40.122;18.310;2023-12-20T12:22:59;8.70;;;4.70;;
84172;SDS011;74302;40.122;18.310;2023-12-20T12:25:31;6.88;;;3.60;;
84172;SDS011;74302;40.122;18.310;2023-12-20T12:28:05;7.63;;;3.58;;
84172;SDS011;74302;40.122;18.310;2023-12-20T12:30:34;7.30;;;3.90;;
84172;SDS011;74302;40.122;18.310;2023-12-20T12:33:05;7.25;;;3.58;;
84172;SDS011;74302;40.122;18.310;2023-12-20T12:35:35;7.47;;;3.72;;
84172;SDS011;74302;40.122;18.310;2023-12-20T12:38:06;7.60;;;3.95;;
84172;SDS011;74302;40.122;18.310;2023-12-20T12:40:36;8.35;;;4.53;;
84172;SDS011;74302;40.122;18.310;2023-12-20T12:43:05;8.75;;;4.85;;
84172;SDS011;74302;40.122;18.310;2023-12-20T12:45:35;6.90;;;3.38;;
84172;SDS011;74302;40.122;18.310;2023-12-20T12:48:04;8.15;;;2.80;;
84172;SDS011;74302;40.122;18.310;2023-12-20T12:50:34;9.13;;;3.58;;
84172;SDS011;74302;40.122;18.310;2023-12-20T12:53:03;7.78;;;3.33;;
84172;SDS011;74302;40.122;18.310;2023-12-20T12:55:34;8.80;;;5.22;;
84172;SDS011;74302;40.122;18.310;2023-12-20T12:58:04;7.10;;;3.80;;
84172;SDS011;74302;40.122;18.310;2023-12-20T13:00:33;6.20;;;3.10;;
84172;SDS011;74302;40.122;18.310;2023-12-20T13:03:02;6.90;;;3.25;;
84172;SDS011;74302;40.122;18.310;2023-12-20T13:05:32;5.80;;;2.75;;
84172;SDS011;74302;40.122;18.310;2023-12-20T13:08:02;6.95;;;2.90;;
84172;SDS011;74302;40.122;18.310;2023-12-20T13:10:33;5.65;;;2.90;;
84172;SDS011;74302;40.122;18.310;2023-12-20T13:13:03;7.00;;;3.10;;
84172;SDS011;74302;40.122;18.310;2023-12-20T13:15:32;7.30;;;3.70;;
84172;SDS011;74302;40.122;18.310;2023-12-20T13:18:02;6.47;;;3.33;;
84172;SDS011;74302;40.122;18.310;2023-12-20T13:20:32;7.68;;;3.38;;
84172;SDS011;74302;40.122;18.310;2023-12-20T13:23:01;6.63;;;3.40;;
84172;SDS011;74302;40.122;18.310;2023-12-20T13:25:31;6.38;;;3.08;;
84172;SDS011;74302;40.122;18.310;2023-12-20T13:28:02;5.47;;;2.50;;
84172;SDS011;74302;40.122;18.310;2023-12-20T13:30:32;4.30;;;2.22;;
84172;SDS011;74302;40.122;18.310;2023-12-20T13:33:01;4.18;;;2.30;;
84172;SDS011;74302;40.122;18.310;2023-12-20T13:35:30;5.65;;;2.78;;
84172;SDS011;74302;40.122;18.310;2023-12-20T13:38:00;4.47;;;2.17;;
84172;SDS011;74302;40.122;18.310;2023-12-20T13:40:30;4.80;;;2.10;;
84172;SDS011;74302;40.122;18.310;2023-12-20T13:43:01;3.80;;;2.10;;
84172;SDS011;74302;40.122;18.310;2023-12-20T13:45:31;5.15;;;2.00;;
84172;SDS011;74302;40.122;18.310;2023-12-20T13:48:00;4.88;;;2.17;;
84172;SDS011;74302;40.122;18.310;2023-12-20T13:50:31;6.90;;;2.70;;
84172;SDS011;74302;40.122;18.310;2023-12-20T13:53:01;7.45;;;2.20;;
84172;SDS011;74302;40.122;18.310;2023-12-20T13:55:31;4.82;;;2.30;;
84172;SDS011;74302;40.122;18.310;2023-12-20T13:58:02;6.05;;;3.22;;
84172;SDS011;74302;40.122;18.310;2023-12-20T14:00:31;5.15;;;2.28;;
84172;SDS011;74302;40.122;18.310;2023-12-20T14:03:01;6.85;;;2.70;;
84172;SDS011;74302;40.122;18.310;2023-12-20T14:05:30;5.22;;;2.50;;
84172;SDS011;74302;40.122;18.310;2023-12-20T14:08:00;6.03;;;2.40;;
84172;SDS011;74302;40.122;18.310;2023-12-20T14:10:30;7.57;;;2.40;;
84172;SDS011;74302;40.122;18.310;2023-12-20T14:12:59;5.90;;;2.70;;
84172;SDS011;74302;40.122;18.310;2023-12-20T14:15:31;6.45;;;2.45;;
84172;SDS011;74302;40.122;18.310;2023-12-20T14:18:04;6.07;;;2.65;;
84172;SDS011;74302;40.122;18.310;2023-12-20T14:20:35;4.90;;;2.50;;
84172;SDS011;74302;40.122;18.310;2023-12-20T14:23:06;5.65;;;2.40;;
84172;SDS011;74302;40.122;18.310;2023-12-20T14:25:37;6.43;;;2.42;;
84172;SDS011;74302;40.122;18.310;2023-12-20T14:28:10;6.72;;;2.28;;
84172;SDS011;74302;40.122;18.310;2023-12-20T14:30:41;5.75;;;2.20;;
84172;SDS011;74302;40.122;18.310;2023-12-20T14:33:10;9.00;;;2.58;;